createdAt,value
2022-08-24T00:00:53.239Z,19.14
2022-08-24T00:03:21.583Z,19.17
2022-08-24T00:05:49.826Z,19.19
2022-08-24T00:08:19.217Z,19.20
2022-08-24T00:10:47.842Z,19.22
2022-08-24T00:13:16.867Z,19.23
2022-08-24T00:15:45.248Z,19.25
2022-08-24T00:18:16.698Z,19.27
2022-08-24T00:20:45.797Z,19.28
2022-08-24T00:23:14.841Z,19.30
2022-08-24T00:25:43.594Z,19.32
2022-08-24T00:28:11.620Z,19.33
2022-08-24T00:30:39.765Z,19.34
2022-08-24T00:33:08.537Z,19.34
2022-08-24T00:35:36.806Z,19.34
2022-08-24T00:38:07.889Z,19.34
2022-08-24T00:40:46.331Z,19.35
2022-08-24T00:43:22.649Z,19.35
2022-08-24T00:46:22.132Z,19.35
2022-08-24T00:48:57.851Z,19.37
2022-08-24T00:51:45.904Z,19.38
2022-08-24T00:54:18.165Z,19.38
2022-08-24T00:56:54.276Z,19.37
2022-08-24T00:59:26.745Z,19.35
2022-08-24T01:01:56.901Z,19.33
2022-08-24T01:04:39.889Z,19.32
2022-08-24T01:07:07.749Z,19.31
2022-08-24T01:09:36.642Z,19.31
2022-08-24T01:12:05.565Z,19.32
2022-08-24T01:14:36.280Z,19.33
2022-08-24T01:17:35.101Z,19.35
2022-08-24T01:20:09.197Z,19.38
2022-08-24T01:23:16.089Z,19.38
2022-08-24T01:25:45.091Z,19.39
2022-08-24T01:28:27.229Z,19.38
2022-08-24T01:30:55.716Z,19.38
2022-08-24T01:33:34.052Z,19.37
2022-08-24T01:36:18.799Z,19.36
2022-08-24T01:38:54.443Z,19.36
2022-08-24T01:41:28.771Z,19.35
2022-08-24T01:43:59.592Z,19.34
2022-08-24T01:46:31.223Z,19.34
2022-08-24T01:48:59.471Z,19.35
2022-08-24T01:51:32.508Z,19.35
2022-08-24T01:54:04.922Z,19.37
2022-08-24T01:56:34.273Z,19.37
2022-08-24T01:59:05.042Z,19.38
2022-08-24T02:01:40.135Z,19.40
2022-08-24T02:04:11.473Z,19.41
2022-08-24T02:06:48.503Z,19.42
2022-08-24T02:09:17.424Z,19.43
2022-08-24T02:11:45.533Z,19.45
2022-08-24T02:14:15.680Z,19.45
2022-08-24T02:16:43.558Z,19.47
2022-08-24T02:19:12.440Z,19.49
2022-08-24T02:21:40.768Z,19.49
2022-08-24T02:24:09.897Z,19.48
2022-08-24T02:26:38.672Z,19.50
2022-08-24T02:29:09.669Z,19.50
2022-08-24T02:31:38.541Z,19.50
2022-08-24T02:34:07.298Z,19.51
2022-08-24T02:36:35.611Z,19.52
2022-08-24T02:39:06.137Z,19.52
2022-08-24T02:41:35.941Z,19.53
2022-08-24T02:44:05.153Z,19.53
2022-08-24T02:46:34.524Z,19.53
2022-08-24T02:49:10.609Z,19.54
2022-08-24T02:51:45.704Z,19.53
2022-08-24T02:54:19.582Z,19.52
2022-08-24T02:56:49.585Z,19.51
2022-08-24T02:59:18.587Z,19.51
2022-08-24T03:01:50.093Z,19.53
2022-08-24T03:04:22.721Z,19.54
2022-08-24T03:06:53.508Z,19.55
2022-08-24T03:09:23.412Z,19.55
2022-08-24T03:11:54.714Z,19.56
2022-08-24T03:14:23.091Z,19.57
2022-08-24T03:16:51.010Z,19.57
2022-08-24T03:19:19.560Z,19.58
2022-08-24T03:21:48.049Z,19.59
2022-08-24T03:24:16.381Z,19.60
2022-08-24T03:26:45.659Z,19.60
2022-08-24T03:29:15.925Z,19.60
2022-08-24T03:31:45.714Z,19.61
2022-08-24T03:34:16.427Z,19.61
2022-08-24T03:36:47.682Z,19.61
2022-08-24T03:39:18.713Z,19.62
2022-08-24T03:41:50.645Z,19.64
2022-08-24T03:44:23.093Z,19.64
2022-08-24T03:46:52.907Z,19.65
2022-08-24T03:49:23.016Z,19.65
2022-08-24T03:51:53.176Z,19.65
2022-08-24T03:54:25.209Z,19.66
2022-08-24T03:56:53.719Z,19.67
2022-08-24T03:59:22.236Z,19.68
2022-08-24T04:01:53.247Z,19.69
2022-08-24T04:04:23.061Z,19.70
2022-08-24T04:06:50.965Z,19.72
2022-08-24T04:09:19.584Z,19.74
2022-08-24T04:11:48.759Z,19.72
2022-08-24T04:14:26.787Z,19.70
2022-08-24T04:17:04.886Z,19.70
2022-08-24T04:19:37.462Z,19.72
2022-08-24T04:22:08.627Z,19.74
2022-08-24T04:24:37.729Z,19.75
2022-08-24T04:27:06.589Z,19.76
2022-08-24T04:29:36.019Z,19.77
2022-08-24T04:32:04.909Z,19.79
2022-08-24T04:34:33.937Z,19.80
2022-08-24T04:37:02.372Z,19.80
2022-08-24T04:39:30.896Z,19.81
2022-08-24T04:42:23.738Z,19.84
2022-08-24T04:44:56.067Z,19.85
2022-08-24T04:47:28.691Z,19.87
2022-08-24T04:49:57.813Z,19.89
2022-08-24T04:52:28.434Z,19.91
2022-08-24T04:54:56.358Z,19.92
2022-08-24T04:57:26.641Z,19.94
2022-08-24T04:59:58.358Z,19.98
2022-08-24T05:02:27.097Z,20.10
2022-08-24T05:04:58.501Z,20.19
2022-08-24T05:07:26.903Z,20.21
2022-08-24T05:09:55.007Z,20.21
2022-08-24T05:12:24.842Z,20.29
2022-08-24T05:15:00.138Z,20.39
2022-08-24T05:17:29.641Z,20.33
2022-08-24T05:19:58.943Z,20.38
2022-08-24T05:22:27.244Z,20.48
2022-08-24T05:24:55.372Z,20.53
2022-08-24T05:27:25.232Z,20.53
2022-08-24T05:29:57.986Z,20.58
2022-08-24T05:32:26.899Z,20.61
2022-08-24T05:34:56.694Z,20.63
2022-08-24T05:37:26.619Z,20.62
2022-08-24T05:40:12.383Z,20.61
2022-08-24T05:42:42.438Z,20.61
2022-08-24T05:45:12.990Z,20.68
2022-08-24T05:47:42.193Z,20.78
2022-08-24T05:50:24.002Z,20.95
2022-08-24T05:52:51.859Z,21.13
2022-08-24T05:55:20.355Z,21.29
2022-08-24T05:57:48.210Z,21.38
2022-08-24T06:00:25.377Z,21.50
2022-08-24T06:02:53.763Z,21.58
2022-08-24T06:05:22.591Z,21.57
2022-08-24T06:07:50.705Z,21.59
2022-08-24T06:10:36.484Z,21.59
2022-08-24T06:13:08.843Z,21.62
2022-08-24T06:15:38.947Z,21.58
2022-08-24T06:18:08.564Z,21.60
2022-08-24T06:20:43.513Z,21.65
2022-08-24T06:23:14.443Z,21.67
2022-08-24T06:26:06.633Z,21.65
2022-08-24T06:28:36.627Z,21.66
2022-08-24T06:31:07.358Z,21.63
2022-08-24T06:33:35.910Z,21.65
2022-08-24T06:36:04.518Z,21.64
2022-08-24T06:38:36.023Z,21.61
2022-08-24T06:41:07.495Z,21.62
2022-08-24T06:43:37.202Z,21.57
2022-08-24T06:46:12.838Z,21.54
2022-08-24T06:48:47.515Z,21.53
2022-08-24T06:51:18.651Z,21.48
2022-08-24T06:53:49.973Z,21.51
2022-08-24T06:56:20.037Z,21.61
2022-08-24T06:58:48.420Z,21.62
2022-08-24T07:01:23.241Z,21.65
2022-08-24T07:03:52.940Z,21.67
2022-08-24T07:06:41.564Z,21.63
2022-08-24T07:09:11.048Z,21.59
2022-08-24T07:11:41.632Z,21.58
2022-08-24T07:14:12.065Z,21.64
2022-08-24T07:16:40.657Z,21.71
2022-08-24T07:19:10.302Z,21.77
2022-08-24T07:21:38.209Z,21.75
2022-08-24T07:24:07.368Z,21.73
2022-08-24T07:26:39.719Z,21.85
2022-08-24T07:29:36.780Z,22.03
2022-08-24T07:32:07.725Z,22.22
2022-08-24T07:34:37.820Z,22.37
2022-08-24T07:37:07.956Z,22.48
2022-08-24T07:39:38.631Z,22.57
2022-08-24T07:42:13.787Z,22.49
2022-08-24T07:44:43.820Z,22.50
2022-08-24T07:47:36.906Z,22.50
2022-08-24T07:50:03.311Z,22.50
2022-08-24T07:52:38.194Z,22.44
2022-08-24T07:55:07.144Z,22.32
2022-08-24T07:57:40.563Z,22.12
2022-08-24T08:00:15.332Z,21.94
2022-08-24T08:02:46.848Z,21.83
2022-08-24T08:05:21.646Z,21.87
2022-08-24T08:07:52.604Z,22.05
2022-08-24T08:10:23.487Z,22.23
2022-08-24T08:12:52.620Z,22.37
2022-08-24T08:15:24.105Z,22.35
2022-08-24T08:18:00.689Z,22.24
2022-08-24T08:20:32.209Z,22.16
2022-08-24T08:23:19.426Z,22.16
2022-08-24T08:26:16.540Z,22.29
2022-08-24T08:29:00.368Z,22.38
2022-08-24T08:31:28.874Z,22.41
2022-08-24T08:33:57.129Z,22.51
2022-08-24T08:36:26.106Z,22.65
2022-08-24T08:38:56.586Z,22.82
2022-08-24T08:41:58.854Z,22.96
2022-08-24T08:44:40.532Z,23.23
2022-08-24T08:47:21.019Z,23.45
2022-08-24T08:50:14.445Z,23.54
2022-08-24T08:53:22.590Z,23.38
2022-08-24T08:56:18.149Z,23.26
2022-08-24T08:59:25.757Z,23.34
2022-08-24T09:02:23.215Z,23.34
2022-08-24T09:05:35.744Z,23.21
2022-08-24T09:08:52.274Z,23.14
2022-08-24T09:11:35.817Z,23.19
2022-08-24T09:14:27.697Z,23.30
2022-08-24T09:17:22.322Z,23.45
2022-08-24T09:20:14.418Z,23.61
2022-08-24T09:22:48.175Z,23.55
2022-08-24T09:25:26.677Z,23.58
2022-08-24T09:28:43.797Z,23.53
2022-08-24T09:31:39.519Z,23.40
2022-08-24T09:34:25.714Z,23.30
2022-08-24T09:37:22.858Z,23.39
2022-08-24T09:40:09.775Z,23.36
2022-08-24T09:43:18.026Z,23.25
2022-08-24T09:45:58.660Z,23.16
2022-08-24T09:48:34.773Z,23.12
2022-08-24T09:51:26.959Z,22.98
2022-08-24T09:54:27.429Z,22.87
2022-08-24T09:57:50.367Z,22.80
2022-08-24T10:00:30.864Z,22.73
2022-08-24T10:03:22.824Z,22.78
2022-08-24T10:06:30.717Z,22.81
2022-08-24T10:09:24.095Z,22.82
2022-08-24T10:12:07.732Z,22.73
2022-08-24T10:15:11.123Z,22.70
2022-08-24T10:18:02.909Z,22.79
2022-08-24T10:20:52.089Z,22.82
2022-08-24T10:23:52.553Z,22.93
2022-08-24T10:26:37.160Z,23.01
2022-08-24T10:29:42.931Z,22.99
2022-08-24T10:32:47.836Z,23.06
2022-08-24T10:35:28.648Z,23.12
2022-08-24T10:38:38.517Z,23.13
2022-08-24T10:41:49.452Z,23.16
2022-08-24T10:44:28.735Z,23.31
2022-08-24T10:47:21.127Z,23.38
2022-08-24T10:50:07.608Z,23.48
2022-08-24T10:53:17.623Z,23.73
2022-08-24T10:55:51.854Z,23.99
2022-08-24T10:58:39.242Z,24.02
2022-08-24T11:01:21.143Z,24.16
2022-08-24T11:04:02.846Z,24.36
2022-08-24T11:07:05.720Z,24.48
2022-08-24T11:09:51.740Z,24.61
2022-08-24T11:12:33.854Z,24.56
2022-08-24T11:15:11.114Z,24.71
2022-08-24T11:17:58.013Z,24.80
2022-08-24T11:20:51.081Z,24.68
2022-08-24T11:23:35.393Z,24.58
2022-08-24T11:26:21.385Z,24.59
2022-08-24T11:29:04.463Z,24.50
2022-08-24T11:31:39.913Z,24.45
2022-08-24T11:34:15.326Z,24.40
2022-08-24T11:36:46.220Z,24.75
2022-08-24T11:39:33.821Z,24.99
2022-08-24T11:42:30.209Z,25.19
2022-08-24T11:45:08.079Z,25.50
2022-08-24T11:47:50.877Z,25.49
2022-08-24T11:50:44.591Z,25.43
2022-08-24T11:53:24.343Z,25.17
2022-08-24T11:56:01.286Z,25.05
2022-08-24T11:58:45.741Z,25.07
2022-08-24T12:01:45.824Z,24.99
2022-08-24T12:04:46.078Z,25.01
2022-08-24T12:07:33.075Z,24.85
2022-08-24T12:10:50.407Z,24.72
2022-08-24T12:13:33.738Z,24.73
2022-08-24T12:16:38.675Z,24.69
2022-08-24T12:19:15.783Z,24.77
2022-08-24T12:21:51.053Z,24.76
2022-08-24T12:24:39.153Z,24.64
2022-08-24T12:27:16.902Z,24.53
2022-08-24T12:30:05.780Z,24.59
2022-08-24T12:32:47.966Z,24.55
2022-08-24T12:35:34.377Z,24.41
2022-08-24T12:38:27.085Z,24.25
2022-08-24T12:41:24.110Z,24.13
2022-08-24T12:43:58.832Z,24.22
2022-08-24T12:46:27.364Z,24.38
2022-08-24T12:49:28.268Z,24.41
2022-08-24T12:52:21.474Z,24.40
2022-08-24T12:55:21.056Z,24.41
2022-08-24T12:58:54.061Z,24.37
2022-08-24T13:01:11.660Z,24.49
2022-08-24T13:03:43.354Z,24.73
2022-08-24T13:06:37.170Z,24.99
2022-08-24T13:09:31.115Z,25.23
2022-08-24T13:12:38.185Z,25.45
2022-08-24T13:15:45.400Z,25.48
2022-08-24T13:18:22.036Z,25.35
2022-08-24T13:20:58.910Z,25.38
2022-08-24T13:23:27.486Z,25.61
2022-08-24T13:26:27.807Z,25.69
2022-08-24T13:28:58.293Z,25.85
2022-08-24T13:31:28.839Z,25.92
2022-08-24T13:34:20.993Z,25.77
2022-08-24T13:37:02.253Z,25.64
2022-08-24T13:40:17.832Z,25.62
2022-08-24T13:43:18.454Z,25.44
2022-08-24T13:46:16.210Z,25.27
2022-08-24T13:49:00.566Z,25.08
2022-08-24T13:51:52.168Z,24.95
2022-08-24T13:55:00.301Z,24.87
2022-08-24T13:57:52.424Z,24.83
2022-08-24T14:01:04.046Z,24.72
2022-08-24T14:03:52.064Z,24.71
2022-08-24T14:06:35.225Z,24.62
2022-08-24T14:09:16.313Z,24.57
2022-08-24T14:12:07.350Z,24.64
2022-08-24T14:15:00.362Z,24.67
2022-08-24T14:17:55.194Z,24.76
2022-08-24T14:20:58.350Z,24.74
2022-08-24T14:23:45.010Z,24.65
2022-08-24T14:26:34.850Z,24.45
2022-08-24T14:29:21.661Z,24.33
2022-08-24T14:32:00.251Z,24.33
2022-08-24T14:34:58.386Z,24.44
2022-08-24T14:37:48.222Z,24.45
2022-08-24T14:40:37.436Z,24.54
2022-08-24T14:43:11.599Z,24.50
2022-08-24T14:46:04.395Z,24.52
2022-08-24T14:48:44.769Z,24.57
2022-08-24T14:51:54.370Z,24.62
2022-08-24T14:54:36.021Z,24.49
2022-08-24T14:57:19.660Z,24.43
2022-08-24T15:00:04.356Z,24.44
2022-08-24T15:03:08.567Z,24.49
2022-08-24T15:06:28.607Z,24.80
2022-08-24T15:09:24.537Z,25.08
2022-08-24T15:12:21.138Z,25.33
2022-08-24T15:14:56.258Z,25.38
2022-08-24T15:17:36.105Z,25.28
2022-08-24T15:20:17.270Z,25.12
2022-08-24T15:23:10.528Z,24.90
2022-08-24T15:25:48.428Z,24.69
2022-08-24T15:28:32.552Z,24.63
2022-08-24T15:31:02.639Z,24.51
2022-08-24T15:33:35.054Z,24.42
2022-08-24T15:36:08.588Z,24.39
2022-08-24T15:38:40.003Z,24.46
2022-08-24T15:41:26.697Z,24.47
2022-08-24T15:44:09.901Z,24.43
2022-08-24T15:46:43.519Z,24.49
2022-08-24T15:49:51.722Z,24.63
2022-08-24T15:52:45.084Z,24.77
2022-08-24T15:55:29.310Z,24.83
2022-08-24T15:57:59.039Z,24.87
2022-08-24T16:00:55.715Z,24.86
2022-08-24T16:03:26.839Z,24.85
2022-08-24T16:05:56.672Z,24.89
2022-08-24T16:08:24.747Z,24.79
2022-08-24T16:10:57.141Z,24.58
2022-08-24T16:13:33.545Z,24.38
2022-08-24T16:16:15.494Z,24.30
2022-08-24T16:18:59.624Z,24.29
2022-08-24T16:21:37.811Z,24.27
2022-08-24T16:24:40.189Z,24.26
2022-08-24T16:27:16.955Z,24.23
2022-08-24T16:29:59.364Z,24.19
2022-08-24T16:32:38.350Z,24.20
2022-08-24T16:35:20.889Z,24.19
2022-08-24T16:37:52.932Z,24.22
2022-08-24T16:40:23.062Z,24.28
2022-08-24T16:42:51.137Z,24.36
2022-08-24T16:45:22.195Z,24.33
2022-08-24T16:47:50.566Z,24.34
2022-08-24T16:50:22.000Z,24.33
2022-08-24T16:52:56.447Z,24.30
2022-08-24T16:55:25.030Z,24.34
2022-08-24T16:57:53.355Z,24.36
2022-08-24T17:00:22.342Z,24.29
2022-08-24T17:02:50.221Z,24.30
2022-08-24T17:05:18.311Z,24.33
2022-08-24T17:07:47.218Z,24.36
2022-08-24T17:10:19.306Z,24.35
2022-08-24T17:12:53.110Z,24.30
2022-08-24T17:15:21.920Z,24.15
2022-08-24T17:18:05.019Z,24.04
2022-08-24T17:20:33.758Z,24.04
2022-08-24T17:23:02.852Z,24.02
2022-08-24T17:25:31.767Z,23.93
2022-08-24T17:28:00.972Z,23.87
2022-08-24T17:30:30.906Z,23.84
2022-08-24T17:32:59.996Z,23.79
2022-08-24T17:35:28.173Z,23.78
2022-08-24T17:37:57.168Z,23.75
2022-08-24T17:40:26.608Z,23.70
2022-08-24T17:42:54.951Z,23.67
2022-08-24T17:45:30.795Z,23.63
2022-08-24T17:48:13.441Z,23.59
2022-08-24T17:50:47.186Z,23.53
2022-08-24T17:53:15.044Z,23.48
2022-08-24T17:55:43.298Z,23.44
2022-08-24T17:58:11.408Z,23.39
2022-08-24T18:00:40.172Z,23.31
2022-08-24T18:03:13.382Z,23.25
2022-08-24T18:05:50.041Z,23.19
2022-08-24T18:08:18.239Z,23.13
2022-08-24T18:10:47.797Z,23.03
2022-08-24T18:13:16.379Z,22.98
2022-08-24T18:15:44.330Z,22.94
2022-08-24T18:18:13.220Z,22.89
2022-08-24T18:20:41.928Z,22.84
2022-08-24T18:23:12.042Z,22.79
2022-08-24T18:25:47.649Z,22.74
2022-08-24T18:28:17.306Z,22.69
2022-08-24T18:30:46.326Z,22.65
2022-08-24T18:33:15.055Z,22.58
2022-08-24T18:35:43.606Z,22.50
2022-08-24T18:38:14.408Z,22.43
2022-08-24T18:40:52.619Z,22.41
2022-08-24T18:43:25.187Z,22.40
2022-08-24T18:45:54.583Z,22.39
2022-08-24T18:48:36.449Z,22.32
2022-08-24T18:51:04.554Z,22.28
2022-08-24T18:53:35.655Z,22.27
2022-08-24T18:56:10.623Z,22.27
2022-08-24T18:58:40.643Z,22.20
2022-08-24T19:01:08.795Z,22.14
2022-08-24T19:03:39.455Z,22.13
2022-08-24T19:06:08.204Z,22.13
2022-08-24T19:08:36.960Z,22.10
2022-08-24T19:11:05.912Z,22.07
2022-08-24T19:13:33.998Z,22.04
2022-08-24T19:16:03.895Z,22.02
2022-08-24T19:18:32.144Z,21.99
2022-08-24T19:21:00.052Z,21.98
2022-08-24T19:23:31.255Z,21.93
2022-08-24T19:26:03.416Z,21.85
2022-08-24T19:28:33.295Z,21.78
2022-08-24T19:31:05.374Z,21.72
2022-08-24T19:33:38.108Z,21.67
2022-08-24T19:36:06.709Z,21.62
2022-08-24T19:38:34.845Z,21.57
2022-08-24T19:41:11.784Z,21.54
2022-08-24T19:44:00.364Z,21.53
2022-08-24T19:46:28.498Z,21.54
2022-08-24T19:48:56.390Z,21.57
2022-08-24T19:51:24.769Z,21.59
2022-08-24T19:53:52.974Z,21.62
2022-08-24T19:56:21.954Z,21.62
2022-08-24T19:58:50.458Z,21.55
2022-08-24T20:01:22.062Z,21.50
2022-08-24T20:03:50.868Z,21.44
2022-08-24T20:06:24.041Z,21.40
2022-08-24T20:08:53.064Z,21.37
2022-08-24T20:11:24.906Z,21.34
2022-08-24T20:13:54.757Z,21.31
2022-08-24T20:16:26.697Z,21.31
2022-08-24T20:18:54.800Z,21.30
2022-08-24T20:21:27.081Z,21.30
2022-08-24T20:24:00.703Z,21.31
2022-08-24T20:26:33.196Z,21.30
2022-08-24T20:29:01.060Z,21.30
2022-08-24T20:31:29.027Z,21.31
2022-08-24T20:33:57.549Z,21.31
2022-08-24T20:36:29.589Z,21.31
2022-08-24T20:39:00.038Z,21.31
2022-08-24T20:41:31.058Z,21.29
2022-08-24T20:43:59.540Z,21.30
2022-08-24T20:46:28.787Z,21.30
2022-08-24T20:48:58.215Z,21.29
2022-08-24T20:51:26.729Z,21.29
2022-08-24T20:53:56.250Z,21.28
2022-08-24T20:56:32.728Z,21.26
2022-08-24T20:59:09.265Z,21.25
2022-08-24T21:01:38.633Z,21.23
2022-08-24T21:04:14.772Z,21.20
2022-08-24T21:06:47.204Z,21.17
2022-08-24T21:09:21.302Z,21.15
2022-08-24T21:11:49.603Z,21.13
2022-08-24T21:14:20.098Z,21.10
2022-08-24T21:16:48.536Z,21.08
2022-08-24T21:19:17.735Z,21.06
2022-08-24T21:21:47.138Z,21.02
2022-08-24T21:24:16.969Z,20.99
2022-08-24T21:26:45.530Z,20.95
2022-08-24T21:29:14.007Z,20.89
2022-08-24T21:32:02.217Z,20.84
2022-08-24T21:34:41.917Z,20.79
2022-08-24T21:37:16.961Z,20.76
2022-08-24T21:39:47.117Z,20.73
2022-08-24T21:42:16.761Z,20.69
2022-08-24T21:44:45.112Z,20.66
2022-08-24T21:47:13.170Z,20.63
2022-08-24T21:49:46.754Z,20.60
2022-08-24T21:52:15.004Z,20.59
2022-08-24T21:54:42.888Z,20.57
2022-08-24T21:57:11.485Z,20.56
2022-08-24T21:59:39.732Z,20.55
2022-08-24T22:02:07.941Z,20.52
2022-08-24T22:04:38.631Z,20.50
2022-08-24T22:07:07.683Z,20.48
2022-08-24T22:09:36.137Z,20.45
2022-08-24T22:12:09.245Z,20.43
2022-08-24T22:14:37.127Z,20.42
2022-08-24T22:17:05.542Z,20.42
2022-08-24T22:19:34.060Z,20.42
2022-08-24T22:22:01.811Z,20.42
2022-08-24T22:24:29.632Z,20.40
2022-08-24T22:26:57.426Z,20.38
2022-08-24T22:29:25.778Z,20.36
2022-08-24T22:31:53.623Z,20.34
2022-08-24T22:34:21.855Z,20.32
2022-08-24T22:36:50.016Z,20.31
2022-08-24T22:39:18.981Z,20.28
2022-08-24T22:41:46.909Z,20.26
2022-08-24T22:44:21.581Z,20.26
2022-08-24T22:46:51.432Z,20.23
2022-08-24T22:49:21.637Z,20.22
2022-08-24T22:51:50.217Z,20.20
2022-08-24T22:54:22.610Z,20.18
2022-08-24T22:56:53.129Z,20.16
2022-08-24T22:59:27.828Z,20.15
2022-08-24T23:01:58.791Z,20.12
2022-08-24T23:04:32.076Z,20.09
2022-08-24T23:07:01.311Z,20.07
2022-08-24T23:09:31.965Z,20.03
2022-08-24T23:12:18.786Z,19.99
2022-08-24T23:14:46.898Z,19.96
2022-08-24T23:17:14.782Z,19.94
2022-08-24T23:20:01.731Z,19.92
2022-08-24T23:22:33.604Z,19.89
2022-08-24T23:25:02.774Z,19.86
2022-08-24T23:27:38.394Z,19.84
2022-08-24T23:30:09.780Z,19.83
2022-08-24T23:32:38.116Z,19.81
2022-08-24T23:35:06.695Z,19.80
2022-08-24T23:37:34.705Z,19.79
2022-08-24T23:40:03.160Z,19.78
2022-08-24T23:42:31.085Z,19.77
2022-08-24T23:44:59.107Z,19.76
2022-08-24T23:47:28.710Z,19.75
2022-08-24T23:49:57.025Z,19.72
2022-08-24T23:52:28.705Z,19.69
2022-08-24T23:55:06.082Z,19.69
2022-08-24T23:57:46.918Z,19.68
